createdAt,value
2022-12-15T00:02:17.186Z,-2.10
2022-12-15T00:05:03.904Z,-1.90
2022-12-15T00:07:49.480Z,-1.80
2022-12-15T00:10:35.206Z,-1.80
2022-12-15T00:13:20.489Z,-2.10
2022-12-15T00:16:05.677Z,-2.20
2022-12-15T00:18:51.108Z,-2.30
2022-12-15T00:21:37.811Z,-2.10
2022-12-15T00:24:23.284Z,-2.50
2022-12-15T00:27:08.485Z,-2.30
2022-12-15T00:29:53.392Z,-2.10
2022-12-15T00:32:38.638Z,-1.90
2022-12-15T00:35:24.351Z,-1.90
2022-12-15T00:38:10.728Z,-1.90
2022-12-15T00:40:38.544Z,-1.80
2022-12-15T00:43:06.457Z,-1.80
2022-12-15T00:45:48.151Z,-1.70
2022-12-15T00:48:16.205Z,-1.70
2022-12-15T00:50:53.137Z,-1.70
2022-12-15T00:53:40.353Z,-2.00
2022-12-15T00:56:26.072Z,-2.10
2022-12-15T00:59:11.715Z,-2.00
2022-12-15T01:01:56.981Z,-1.80
2022-12-15T01:04:42.511Z,-1.80
2022-12-15T01:07:27.634Z,-1.80
2022-12-15T01:10:14.642Z,-2.00
2022-12-15T01:12:59.874Z,-2.10
2022-12-15T01:15:45.415Z,-2.20
2022-12-15T01:18:30.991Z,-2.10
2022-12-15T01:20:59.322Z,-2.20
2022-12-15T01:23:27.491Z,-2.30
2022-12-15T01:25:56.949Z,-2.10
2022-12-15T01:28:25.364Z,-2.00
2022-12-15T01:30:53.414Z,-1.90
2022-12-15T01:33:21.482Z,-1.90
2022-12-15T01:35:55.982Z,-1.80
2022-12-15T01:38:23.850Z,-2.30
2022-12-15T01:40:51.847Z,-2.20
2022-12-15T01:43:22.414Z,-2.10
2022-12-15T01:45:58.239Z,-1.80
2022-12-15T01:48:35.455Z,-2.00
2022-12-15T01:51:08.205Z,-2.00
2022-12-15T01:53:38.727Z,-2.50
2022-12-15T01:56:07.403Z,-2.30
2022-12-15T01:58:37.277Z,-2.10
2022-12-15T02:01:05.239Z,-2.10
2022-12-15T02:03:33.642Z,-2.00
2022-12-15T02:06:01.935Z,-2.10
2022-12-15T02:08:30.174Z,-2.20
2022-12-15T02:11:04.282Z,-2.20
2022-12-15T02:13:36.455Z,-2.10
2022-12-15T02:16:11.179Z,-2.10
2022-12-15T02:18:44.533Z,-2.10
2022-12-15T02:21:15.822Z,-2.40
2022-12-15T02:24:12.168Z,-2.40
2022-12-15T02:26:53.852Z,-2.20
2022-12-15T02:29:32.684Z,-2.10
2022-12-15T02:32:04.626Z,-2.00
2022-12-15T02:34:35.874Z,-2.00
2022-12-15T02:37:07.061Z,-1.90
2022-12-15T02:39:34.925Z,-1.90
2022-12-15T02:42:02.793Z,-1.80
2022-12-15T02:44:33.318Z,-1.90
2022-12-15T02:47:13.745Z,-1.90
2022-12-15T02:49:47.102Z,-2.30
2022-12-15T02:52:26.138Z,-2.30
2022-12-15T02:55:07.613Z,-2.40
2022-12-15T02:57:39.595Z,-2.30
2022-12-15T03:00:10.113Z,-2.20
2022-12-15T03:02:41.862Z,-2.20
2022-12-15T03:05:11.135Z,-2.00
2022-12-15T03:07:42.971Z,-2.00
2022-12-15T03:10:12.972Z,-1.90
2022-12-15T03:12:41.625Z,-2.30
2022-12-15T03:15:10.507Z,-2.30
2022-12-15T03:17:40.458Z,-2.30
2022-12-15T03:20:09.927Z,-2.20
2022-12-15T03:22:38.220Z,-2.40
2022-12-15T03:25:07.067Z,-2.60
2022-12-15T03:27:36.373Z,-2.30
2022-12-15T03:30:05.310Z,-2.20
2022-12-15T03:32:33.432Z,-2.10
2022-12-15T03:35:03.219Z,-2.10
2022-12-15T03:37:31.669Z,-2.10
2022-12-15T03:39:59.820Z,-2.10
2022-12-15T03:42:45.364Z,-2.10
2022-12-15T03:45:13.572Z,-2.20
2022-12-15T03:47:42.288Z,-1.90
2022-12-15T03:50:13.799Z,-1.90
2022-12-15T03:52:41.985Z,-2.00
2022-12-15T03:55:11.642Z,-2.10
2022-12-15T03:57:39.970Z,-2.10
2022-12-15T04:00:09.021Z,-1.60
2022-12-15T04:02:37.442Z,-2.10
2022-12-15T04:05:05.930Z,-2.60
2022-12-15T04:07:35.731Z,-2.20
2022-12-15T04:10:03.908Z,-2.30
2022-12-15T04:12:32.159Z,-2.30
2022-12-15T04:15:00.400Z,-2.40
2022-12-15T04:17:28.875Z,-2.20
2022-12-15T04:20:12.494Z,-2.20
2022-12-15T04:22:43.012Z,-2.10
2022-12-15T04:25:29.413Z,-2.40
2022-12-15T04:28:14.895Z,-2.40
2022-12-15T04:31:03.040Z,-2.30
2022-12-15T04:33:48.657Z,-2.10
2022-12-15T04:36:34.717Z,-2.00
2022-12-15T04:39:22.864Z,-2.00
2022-12-15T04:42:08.344Z,-2.10
2022-12-15T04:44:54.264Z,-2.20
2022-12-15T04:47:39.703Z,-2.20
2022-12-15T04:50:25.667Z,-2.20
2022-12-15T04:53:11.160Z,-2.10
2022-12-15T04:55:58.782Z,-2.10
2022-12-15T04:58:44.627Z,-2.00
2022-12-15T05:01:30.364Z,-2.00
2022-12-15T05:04:15.914Z,-2.00
2022-12-15T05:07:01.659Z,-2.00
2022-12-15T05:09:47.032Z,-2.10
2022-12-15T05:12:34.235Z,-2.20
2022-12-15T05:15:19.795Z,-2.60
2022-12-15T05:18:05.273Z,-2.80
2022-12-15T05:20:50.967Z,-2.40
2022-12-15T05:23:36.476Z,-1.90
2022-12-15T05:26:22.254Z,-1.80
2022-12-15T05:29:09.292Z,-2.20
2022-12-15T05:31:53.124Z,-2.20
2022-12-15T05:34:22.875Z,-2.20
2022-12-15T05:36:51.414Z,-1.90
2022-12-15T05:39:19.756Z,-2.30
2022-12-15T05:41:48.021Z,-2.30
2022-12-15T05:44:19.362Z,-2.80
2022-12-15T05:46:48.170Z,-2.60
2022-12-15T05:49:17.463Z,-2.90
2022-12-15T05:51:46.779Z,-2.70
2022-12-15T05:54:16.693Z,-2.50
2022-12-15T05:56:45.580Z,-2.40
2022-12-15T05:59:14.670Z,-1.80
2022-12-15T06:01:45.106Z,-2.30
2022-12-15T06:04:14.171Z,-2.40
2022-12-15T06:07:00.315Z,-2.20
2022-12-15T06:09:44.191Z,-2.50
2022-12-15T06:12:18.086Z,-2.30
2022-12-15T06:14:49.896Z,-2.50
2022-12-15T06:17:23.660Z,-2.00
2022-12-15T06:20:01.235Z,-2.60
2022-12-15T06:22:33.099Z,-2.40
2022-12-15T06:25:15.928Z,-2.00
2022-12-15T06:27:45.287Z,-2.30
2022-12-15T06:33:24.434Z,-2.70
2022-12-15T06:36:07.542Z,-2.50
2022-12-15T06:41:45.090Z,-2.30
2022-12-15T06:50:17.555Z,-2.50
2022-12-15T06:52:50.225Z,-2.70
2022-12-15T06:55:38.786Z,-2.70
2022-12-15T06:58:22.838Z,-2.80
2022-12-15T07:04:13.358Z,-2.40
2022-12-15T07:09:57.309Z,-2.50
2022-12-15T07:15:24.741Z,-2.30
2022-12-15T07:17:55.352Z,-2.40
2022-12-15T07:20:28.596Z,-2.50
2022-12-15T07:22:56.946Z,-2.70
2022-12-15T07:25:25.300Z,-2.80
2022-12-15T07:27:53.437Z,-2.20
2022-12-15T07:30:21.310Z,-2.50
2022-12-15T07:32:50.632Z,-2.40
2022-12-15T07:35:19.083Z,-2.30
2022-12-15T07:37:47.101Z,-2.20
2022-12-15T07:40:14.990Z,-2.10
2022-12-15T07:42:42.909Z,-2.10
2022-12-15T07:45:12.018Z,-2.30
2022-12-15T07:47:39.939Z,-2.40
2022-12-15T07:50:09.768Z,-2.30
2022-12-15T07:52:37.679Z,-2.40
2022-12-15T07:55:05.919Z,-2.40
2022-12-15T07:57:33.960Z,-2.20
2022-12-15T08:00:01.807Z,-2.10
2022-12-15T08:02:29.821Z,-2.10
2022-12-15T08:04:57.817Z,-2.00
2022-12-15T08:07:27.049Z,-2.10
2022-12-15T08:09:54.957Z,-2.00
2022-12-15T08:12:22.849Z,-2.10
2022-12-15T08:14:50.773Z,-2.30
2022-12-15T08:24:19.367Z,-2.30
2022-12-15T08:26:50.103Z,-1.90
2022-12-15T08:29:49.673Z,-1.70
2022-12-15T08:32:06.991Z,-0.80
2022-12-15T08:34:35.484Z,-0.80
2022-12-15T08:37:03.401Z,-0.50
2022-12-15T08:39:32.640Z,-0.30
2022-12-15T08:42:00.480Z,0.10
2022-12-15T08:44:28.333Z,0.10
2022-12-15T08:46:56.208Z,0.30
2022-12-15T08:49:24.098Z,0.40
2022-12-15T08:51:52.438Z,1.00
2022-12-15T08:54:20.832Z,1.10
2022-12-15T08:56:50.123Z,1.50
2022-12-15T08:59:19.048Z,2.10
2022-12-15T09:01:47.088Z,2.20
2022-12-15T09:06:43.678Z,3.00
2022-12-15T09:09:14.395Z,3.20
2022-12-15T09:11:42.228Z,3.70
2022-12-15T09:14:11.475Z,4.10
2022-12-15T09:16:39.664Z,4.50
2022-12-15T09:19:08.318Z,4.80
2022-12-15T09:21:36.254Z,5.40
2022-12-15T09:24:04.399Z,5.70
2022-12-15T09:26:33.045Z,5.60
2022-12-15T09:29:01.811Z,5.30
2022-12-15T09:31:32.739Z,5.50
2022-12-15T09:34:01.363Z,5.90
2022-12-15T09:46:27.726Z,8.60
2022-12-15T09:48:58.094Z,8.40
2022-12-15T09:53:55.766Z,8.70
2022-12-15T10:01:26.438Z,9.90
2022-12-15T10:03:57.348Z,9.90
2022-12-15T10:06:33.113Z,10.20
2022-12-15T10:09:03.481Z,10.70
2022-12-15T10:11:42.710Z,11.30
2022-12-15T10:14:17.420Z,11.50
2022-12-15T10:16:50.904Z,11.80
2022-12-15T10:19:21.170Z,11.90
2022-12-15T10:21:50.715Z,12.30
2022-12-15T10:24:37.450Z,12.30
2022-12-15T10:27:12.369Z,13.30
2022-12-15T10:29:44.291Z,13.30
2022-12-15T10:32:19.631Z,13.70
2022-12-15T10:34:47.846Z,14.50
2022-12-15T10:37:20.878Z,14.10
2022-12-15T10:39:50.234Z,14.90
2022-12-15T10:42:22.621Z,15.30
2022-12-15T10:44:51.518Z,15.50
2022-12-15T10:47:21.306Z,15.30
2022-12-15T10:49:50.199Z,15.00
2022-12-15T10:52:23.164Z,15.50
2022-12-15T10:54:52.260Z,15.90
2022-12-15T10:59:50.401Z,16.00
2022-12-15T11:02:32.900Z,15.90
2022-12-15T11:05:01.988Z,16.10
2022-12-15T11:07:33.951Z,16.50
2022-12-15T11:10:02.473Z,16.40
2022-12-15T11:15:42.501Z,15.90
2022-12-15T11:18:19.561Z,15.60
2022-12-15T11:23:22.466Z,20.00
2022-12-15T11:28:20.684Z,15.40
2022-12-15T11:30:52.011Z,15.10
2022-12-15T11:33:19.872Z,15.60
2022-12-15T11:35:56.009Z,16.00
2022-12-15T11:38:29.911Z,16.20
2022-12-15T11:40:59.719Z,16.70
2022-12-15T11:43:43.845Z,16.80
2022-12-15T11:46:22.834Z,16.80
2022-12-15T11:49:11.377Z,17.10
2022-12-15T11:51:42.570Z,17.50
2022-12-15T11:54:20.172Z,17.30
2022-12-15T11:56:49.180Z,17.50
2022-12-15T11:59:23.431Z,17.70
2022-12-15T12:02:03.349Z,17.80
2022-12-15T12:04:35.772Z,18.10
2022-12-15T12:07:08.948Z,18.50
2022-12-15T12:09:42.854Z,18.90
2022-12-15T12:12:17.294Z,19.10
2022-12-15T12:14:50.568Z,19.20
2022-12-15T12:17:22.327Z,19.50
2022-12-15T12:19:52.888Z,19.90
2022-12-15T12:22:24.005Z,19.90
2022-12-15T12:24:56.399Z,19.70
2022-12-15T12:27:28.497Z,19.50
2022-12-15T12:29:59.301Z,19.50
2022-12-15T12:32:29.852Z,19.60
2022-12-15T12:35:29.841Z,19.50
2022-12-15T12:37:52.017Z,19.50
2022-12-15T12:40:25.886Z,19.40
2022-12-15T12:42:55.482Z,19.50
2022-12-15T12:45:26.565Z,19.60
2022-12-15T12:47:56.419Z,19.60
2022-12-15T12:50:25.969Z,19.50
2022-12-15T12:52:55.116Z,19.50
2022-12-15T12:55:27.185Z,19.60
2022-12-15T12:57:55.752Z,19.50
2022-12-15T13:00:24.896Z,19.50
2022-12-15T13:03:13.599Z,19.50
2022-12-15T13:05:42.363Z,19.60
2022-12-15T13:08:29.738Z,19.60
2022-12-15T13:11:18.911Z,19.70
2022-12-15T13:13:51.297Z,19.70
2022-12-15T13:16:23.199Z,19.70
2022-12-15T13:19:03.438Z,19.70
2022-12-15T13:21:55.034Z,19.80
2022-12-15T13:24:35.683Z,19.90
2022-12-15T13:27:13.771Z,19.70
2022-12-15T13:29:56.489Z,19.60
2022-12-15T13:32:32.667Z,19.50
2022-12-15T13:35:04.733Z,19.50
2022-12-15T13:37:44.934Z,19.50
2022-12-15T13:40:26.317Z,19.40
2022-12-15T13:42:58.358Z,19.10
2022-12-15T13:45:34.352Z,18.80
2022-12-15T13:48:06.751Z,18.50
2022-12-15T13:50:39.645Z,18.40
2022-12-15T13:56:15.785Z,18.20
2022-12-15T13:58:44.863Z,18.10
2022-12-15T14:01:21.318Z,17.60
2022-12-15T14:04:04.096Z,17.00
2022-12-15T14:06:35.912Z,16.60
2022-12-15T14:09:04.638Z,16.00
2022-12-15T14:14:24.495Z,14.90
2022-12-15T14:19:22.553Z,14.50
2022-12-15T14:21:53.990Z,14.20
2022-12-15T14:29:34.855Z,13.70
2022-12-15T14:34:37.034Z,13.20
2022-12-15T14:37:07.675Z,13.10
2022-12-15T14:42:04.363Z,13.00
2022-12-15T14:44:38.266Z,12.80
2022-12-15T14:49:41.245Z,12.30
2022-12-15T14:52:18.173Z,12.20
2022-12-15T14:54:51.858Z,11.40
2022-12-15T14:57:22.500Z,11.40
2022-12-15T14:59:51.349Z,11.10
2022-12-15T15:02:22.960Z,10.70
2022-12-15T15:03:12.306Z,18.70
2022-12-15T15:05:02.976Z,10.30
2022-12-15T15:07:32.153Z,10.10
2022-12-15T15:10:00.268Z,9.80
2022-12-15T15:15:00.813Z,9.30
2022-12-15T15:17:31.968Z,9.20
2022-12-15T15:20:02.839Z,8.70
2022-12-15T15:22:39.705Z,8.40
2022-12-15T15:25:26.443Z,8.10
2022-12-15T15:28:02.307Z,7.90
2022-12-15T15:30:30.776Z,7.50
2022-12-15T15:32:59.206Z,7.30
2022-12-15T15:35:31.334Z,6.90
2022-12-15T15:38:02.614Z,6.70
2022-12-15T15:40:30.488Z,6.60
2022-12-15T15:42:58.418Z,6.50
2022-12-15T15:45:26.326Z,6.30
2022-12-15T15:47:56.326Z,6.30
2022-12-15T15:55:32.340Z,5.40
2022-12-15T15:58:06.413Z,5.30
2022-12-15T16:00:34.675Z,5.40
2022-12-15T16:03:02.728Z,5.00
2022-12-15T16:05:30.688Z,4.80
2022-12-15T16:07:59.570Z,4.60
2022-12-15T16:10:29.185Z,4.50
2022-12-15T16:12:58.436Z,4.60
2022-12-15T16:15:27.212Z,4.20
2022-12-15T16:17:55.761Z,4.00
2022-12-15T16:20:24.497Z,3.90
2022-12-15T16:22:55.492Z,3.90
2022-12-15T16:25:27.171Z,4.10
2022-12-15T16:27:56.514Z,3.90
2022-12-15T16:30:25.786Z,3.90
2022-12-15T16:32:53.961Z,4.20
2022-12-15T16:35:25.537Z,3.80
2022-12-15T16:37:53.530Z,3.70
2022-12-15T16:40:22.857Z,3.30
2022-12-15T16:42:55.204Z,3.20
2022-12-15T16:45:25.588Z,3.30
2022-12-15T16:47:53.808Z,3.30
2022-12-15T16:50:26.132Z,3.00
2022-12-15T16:52:55.043Z,2.90
2022-12-15T16:55:24.484Z,2.70
2022-12-15T16:57:53.016Z,2.50
2022-12-15T17:00:21.995Z,2.50
2022-12-15T17:02:51.661Z,2.60
2022-12-15T17:05:20.314Z,2.70
2022-12-15T17:07:51.624Z,2.70
2022-12-15T17:10:21.357Z,2.70
2022-12-15T17:12:49.541Z,2.70
2022-12-15T17:15:18.729Z,2.50
2022-12-15T17:17:46.651Z,2.30
2022-12-15T17:20:30.303Z,1.80
2022-12-15T17:23:00.029Z,1.90
2022-12-15T17:26:09.437Z,2.40
2022-12-15T17:28:23.562Z,2.00
2022-12-15T17:30:51.899Z,2.10
2022-12-15T17:33:20.434Z,2.30
2022-12-15T17:35:51.225Z,1.90
2022-12-15T17:38:21.046Z,2.00
2022-12-15T17:40:49.743Z,2.00
2022-12-15T17:43:18.565Z,1.80
2022-12-15T17:45:46.616Z,1.80
2022-12-15T17:48:15.188Z,1.80
2022-12-15T17:50:43.193Z,1.80
2022-12-15T17:53:14.162Z,1.70
2022-12-15T17:55:42.161Z,1.70
2022-12-15T17:58:16.421Z,2.00
2022-12-15T18:00:49.024Z,2.00
2022-12-15T18:03:17.373Z,2.00
2022-12-15T18:05:45.636Z,2.10
2022-12-15T18:08:16.128Z,2.10
2022-12-15T18:10:44.627Z,2.10
2022-12-15T18:13:16.005Z,2.00
2022-12-15T18:15:44.214Z,2.00
2022-12-15T18:18:12.157Z,1.90
2022-12-15T18:20:40.155Z,1.90
2022-12-15T18:23:13.386Z,1.80
2022-12-15T18:25:44.017Z,1.60
2022-12-15T18:28:19.752Z,1.70
2022-12-15T18:30:48.031Z,1.80
2022-12-15T18:33:15.909Z,1.80
2022-12-15T18:35:44.814Z,1.80
2022-12-15T18:38:15.289Z,1.80
2022-12-15T18:40:45.908Z,1.50
2022-12-15T18:43:15.067Z,1.30
2022-12-15T18:45:42.974Z,1.20
2022-12-15T18:48:16.037Z,1.40
2022-12-15T18:50:43.946Z,1.40
2022-12-15T18:53:15.925Z,1.50
2022-12-15T18:55:45.142Z,1.60
2022-12-15T18:58:18.746Z,1.60
2022-12-15T19:00:46.865Z,1.60
2022-12-15T19:03:14.780Z,1.60
2022-12-15T19:05:42.727Z,1.50
2022-12-15T19:08:13.286Z,1.50
2022-12-15T19:10:43.767Z,1.40
2022-12-15T19:13:14.631Z,1.30
2022-12-15T19:15:42.508Z,1.30
2022-12-15T19:18:30.839Z,1.30
2022-12-15T19:21:16.558Z,1.30
2022-12-15T19:23:44.517Z,1.30
2022-12-15T19:26:12.742Z,1.30
2022-12-15T19:28:41.951Z,1.20
2022-12-15T19:31:09.858Z,1.30
2022-12-15T19:33:37.774Z,1.20
2022-12-15T19:36:11.648Z,1.10
2022-12-15T19:38:39.562Z,1.10
2022-12-15T19:41:07.472Z,1.10
2022-12-15T19:43:36.119Z,0.90
2022-12-15T19:46:05.699Z,0.90
2022-12-15T19:48:33.616Z,0.90
2022-12-15T19:51:01.421Z,0.80
2022-12-15T19:53:31.101Z,0.80
2022-12-15T19:56:01.335Z,0.70
2022-12-15T19:58:29.962Z,0.60
2022-12-15T20:00:59.484Z,0.50
2022-12-15T20:03:29.881Z,0.40
2022-12-15T20:05:58.567Z,0.30
2022-12-15T20:08:27.061Z,0.20
2022-12-15T20:10:55.784Z,0.20
2022-12-15T20:13:23.892Z,0.10
2022-12-15T20:15:51.777Z,0.20
2022-12-15T20:18:20.199Z,0.20
2022-12-15T20:20:50.092Z,0.00
2022-12-15T20:23:19.327Z,0.00
2022-12-15T20:25:47.342Z,0.10
2022-12-15T20:28:21.264Z,0.20
2022-12-15T20:30:49.769Z,0.20
2022-12-15T20:33:17.834Z,0.20
2022-12-15T20:35:46.678Z,0.20
2022-12-15T20:38:18.292Z,0.20
2022-12-15T20:40:46.230Z,0.30
2022-12-15T20:43:15.541Z,0.20
2022-12-15T20:45:43.384Z,0.30
2022-12-15T20:48:12.808Z,0.30
2022-12-15T20:50:42.825Z,0.20
2022-12-15T20:53:19.541Z,0.20
2022-12-15T20:55:48.169Z,0.30
2022-12-15T20:58:16.232Z,0.20
2022-12-15T21:00:44.245Z,0.40
2022-12-15T21:03:19.918Z,0.20
2022-12-15T21:05:48.191Z,0.10
2022-12-15T21:08:19.322Z,0.10
2022-12-15T21:10:47.332Z,0.10
2022-12-15T21:13:19.019Z,0.10
2022-12-15T21:15:46.961Z,0.00
2022-12-15T21:19:11.060Z,0.10
2022-12-15T21:21:02.714Z,0.00
2022-12-15T21:23:32.889Z,0.10
2022-12-15T21:26:03.684Z,-0.40
2022-12-15T21:28:31.763Z,-0.40
2022-12-15T21:30:59.889Z,-0.60
2022-12-15T21:33:27.829Z,-1.00
2022-12-15T21:35:55.680Z,-1.40
2022-12-15T21:38:32.028Z,-1.60
2022-12-15T21:41:03.040Z,-1.50
2022-12-15T21:43:31.988Z,-1.20
2022-12-15T21:46:00.676Z,-1.00
2022-12-15T21:48:46.105Z,-1.00
2022-12-15T21:51:15.571Z,-0.70
2022-12-15T21:53:44.148Z,-0.50
2022-12-15T21:56:17.089Z,-0.70
2022-12-15T21:58:44.940Z,-0.90
2022-12-15T22:01:16.282Z,-0.80
2022-12-15T22:03:45.928Z,-1.30
2022-12-15T22:06:17.906Z,-1.20
2022-12-15T22:08:45.907Z,-1.10
2022-12-15T22:11:20.155Z,-1.00
2022-12-15T22:13:48.173Z,-0.90
2022-12-15T22:16:16.095Z,-0.50
2022-12-15T22:18:44.398Z,-0.70
2022-12-15T22:21:12.305Z,-0.60
2022-12-15T22:23:40.182Z,-0.10
2022-12-15T22:26:08.241Z,-0.90
2022-12-15T22:28:37.712Z,-0.70
2022-12-15T22:31:05.730Z,-0.50
2022-12-15T22:33:33.624Z,-0.60
2022-12-15T22:36:01.588Z,-0.40
2022-12-15T22:38:29.649Z,-0.50
2022-12-15T22:40:59.134Z,-0.30
2022-12-15T22:43:30.046Z,-0.40
2022-12-15T22:45:59.353Z,-0.40
2022-12-15T22:48:29.786Z,-0.50
2022-12-15T22:50:57.879Z,-0.40
2022-12-15T22:53:27.713Z,-0.40
2022-12-15T22:55:55.635Z,-0.40
2022-12-15T22:58:24.854Z,0.00
2022-12-15T23:00:53.623Z,-0.40
2022-12-15T23:03:23.305Z,-0.90
2022-12-15T23:05:51.203Z,0.00
2022-12-15T23:08:19.583Z,-1.00
2022-12-15T23:11:04.887Z,-0.80
2022-12-15T23:13:33.131Z,-1.30
2022-12-15T23:16:18.638Z,-0.50
2022-12-15T23:18:48.153Z,-0.50
2022-12-15T23:21:16.086Z,-0.90
2022-12-15T23:23:43.956Z,-0.70
2022-12-15T23:26:11.850Z,-1.00
2022-12-15T23:28:39.744Z,-0.70
2022-12-15T23:31:08.245Z,-0.30
2022-12-15T23:33:36.593Z,-0.50
2022-12-15T23:36:06.257Z,-0.80
2022-12-15T23:38:34.159Z,-0.90
2022-12-15T23:41:01.980Z,-0.60
2022-12-15T23:43:32.152Z,-0.60
2022-12-15T23:46:01.064Z,-0.40
2022-12-15T23:48:30.709Z,-0.30
2022-12-15T23:51:04.603Z,-0.20
2022-12-15T23:53:34.504Z,-0.20
2022-12-15T23:56:10.363Z,-0.10
2022-12-15T23:58:39.404Z,0.00
